Aérodrome :
LOGIN :

S'inscrire | Disclaimer

   EN    FR    IT 

 










Légende :    VFR   VFR Marginal   IFR   IFR Intensif   IFR Très Intensif
Visi : 
Plafond : 
>= 8 km
>= 3000ft
5 à 8 km
1000 à 3000 ft
1500m à 5 km
500 à 1000 ft
800 à 1500m
200 à 500 ft
< 800m
< 200 ft
Symboles :   Orages  Brouillard  Fortes neiges  Fortes précipitations  Vent > 20 kt
SIGMETs :   Divers  Orages  Givrage  Turbulence  Onde Orograph.  Cendres Volcan.







- Altitude de l'aérodrome : 622 ft
- Code IATA : BRS
- Voir les cartes d'approche


EGGD - Bristol Int.

DERNIER METAR :
  • 231520Z AUTO 23012KT 7000 -RA BKN009 OVC012 12/12 Q1011 RERA REDZ

METARs EXPIRÉS :
  • 231450Z AUTO 22014KT 9999 OVC013 13/11 Q1011
  • 231420Z AUTO 21014KT 9999 BKN011 OVC016 13/11 Q1011
  • 231350Z AUTO 22013KT 9999 OVC012 12/11 Q1011
  • 231320Z AUTO 21011KT 9999 BKN012 OVC025 12/11 Q1012
  • 231250Z AUTO 22013KT 9999 BKN010 BKN019 OVC040 12/11 Q1012

TAF AMD TAF EGGD
Valide du 23 à 15h jusqu'au 24 à 12h UTC


231519Z 2315/2412 22014KT 7000 -RA BKN009
BECMG 2315/2318 9999 NSW SCT015
TEMPO 2315/2321 22018G30KT
BECMG 2321/2324 20018G30KT
TEMPO 2400/2406 21025G43KT
BECMG 2406/2409 27020G35KT 7000 RA BKN007
TEMPO 2408/2411 3000 +RA BKN004
BECMG 2409/2412 22018G28KT 9999 NSW SCT020
ATIS : +44 1275 473 666
Pas de NOTAMs connus pour ce terrain.



MET'MAP, la Météo Aéronautique d'un coup d'oeil ! - Copyright ORBIFLY Décembre 2007 - Disclaimer

ORBIFLY MET'MAP TEAM :

Programmation & Développement : Alexandra Zaïnal
Conception & Développement : Baudouin d'Aumeries
Co-Programmation & Développement : Marc-Olivier Méhu
Soutien technique & logistique : Manuel Goepfert

Contact : metmap@orbifly.com




SOURCES & CREDITS :

   NOAA